Elmer, Oklahoma
Current Conditions -  °F | °C
As of 9:13 PM on Saturday 20 Dec 2014 (Local Time) from KLTS Reporting Station
Overcast Overcast  
Wind Chill: 36°   Ceiling: 2900
Heat Index: 41°   Visibility: 9mi
Dew Point: 41°   Wind: 7mph
Humidity: 100%   Direction: 130°SE
Pressure: 30.12"   Gusts: NA
Location:  34.48°N, 99.35°W
Report Text: KLTS 210313Z AUTO 13006KT 9SM R17R/5500FT OVC029 05/05 A3012 RMK AO2 OVC V BKN $
Loading
Personal Weather Stations






























Interactive Weather Map New forecast layout! Learn more

10-Day Weather Forecast

Advertisements
Track Severe Weather on mobile